Airfield :
LOGIN :

Register | Disclaimer

   EN    FR    IT 

 










Legend :    VFR   Marginal VFR   IFR   Intensive IFR   Very Intensive IFR
Visi :
Ceiling :
>= 8 km
>= 3000ft
5 to 8 km
1000 to 3000 ft
1500m to 5 km
500 to 1000 ft
800 to 1500m
200 to 500 ft
< 800m
< 200 ft
Symbols :   Thunderstorms  Fog  Heavy snow  Heavy precipitations  Wind > 20 kt
SIGMETs :     Misc.  Thunderstorms  Icing  Turbulence  Mountain Waves  Volcanic Ashes






- Airport Elevation : 610 ft
- IATA code : VXO


ESMX - Växjö Kronoberg

CURRENT METAR :
  • 250520Z 20003KT CAVOK 17/15 Q1021

EXPIRED METARs :
  • 250450Z 00000KT CAVOK 16/16 Q1021
  • 250420Z 00000KT 9000 NSC 15/15 Q1021
  • 250350Z AUTO 36002KT 0600 R01/1200U R19/P2000N FG NCD 13/13 Q1021
  • 250320Z AUTO 20003KT 5000 BKN004/// 11/11 Q1021
  • 250250Z AUTO 36001KT 9999 BCFG NCD 11/11 Q1021
  • 250220Z AUTO 36002KT 0300 R01/1100D R19/P2000N BCFG NCD 11/11 Q1021
  • 250150Z AUTO 00000KT 0250 R01/P2000N R19/P2000N FG NCD 11/11 Q1021
  • 250120Z AUTO 36001KT 1000 R01/P2000N R19/P2000D BCFG NCD 12/12 Q1021
  • 250050Z AUTO 36002KT 0300 R01/P2000N R19/P2000N BCFG NCD 12/12 Q1021
  • 250020Z AUTO 00000KT 9999 NCD 11/11 Q1021

TAF AMD TAF ESMX
Valid from the 25 at 03:00 until the 25 at 12:00 UTC


250323Z 2503/2512 VRB03KT CAVOK
TEMPO 2503/2505 0300 FG VV001



MET'MAP, your aeronautical weather chart ! - Copyright ORBIFLY December 2007 - Disclaimer

ORBIFLY MET'MAP TEAM :

Programming & Development : Alexandra Zaïnal
Original concept : Baudouin d'Aumeries
Technical & hardware support : Manuel Goepfert
Assistance : Marc-Olivier Méhu




SOURCES & CREDITS :

   NOAA